Current | Forecast
Updated: 10:30 PM CEST on August 22, 2017
Observed at Vrsac, Romania
Temperature 15°C
Humidity 72%
Dew Point 10°C
Wind NE at 2 km/h
Pressure 1017 hPa (Steady)
Conditions Clear
Visibility -
UV N/A
Clouds
Yesterday's Maximum 23°C
Yesterday's Minimum 14°C approx.
Yesterday's Cooling Degree Days N/A approx.
Sunrise6:44 AM EEST
Sunset8:28 PM EEST
Moon Rise7:15 AM EEST
Moon Set9:00 PM EEST
Moon PhaseMoon Phase
New Moon
Raw METARMETAR LYVR 222030Z 05001KT CAVOK 15/10 Q1017 NOSIG


Monday
. High: 73° F.
Tuesday
. High: 80° F.
Wednesday
. High: 87° F.
Thursday
. High: 93° F.
Friday
. High: 69° F.
Saturday
. High: 73° F.
Sunday
. High: 77° F.
Monday
. High: 80° F.

Units: English | Metric

Find the Weather for any City, State or Zipcode, or Country:

U.S. State List | Severe Weather | Tropical Storms | Ski Conditions
United States | Canada | Central America | South America | Asia | Europe | Australia | Africa | Islands

Weather Underground

© Copyright 2017
The Weather Company, LLC